createdAt,value
2023-09-13T00:03:17.933Z,100085.56
2023-09-13T00:08:27.709Z,100080.30
2023-09-13T00:13:33.346Z,100073.65
2023-09-13T00:18:36.630Z,100068.13
2023-09-13T00:23:40.144Z,100063.98
2023-09-13T00:28:43.576Z,100056.27
2023-09-13T00:33:47.090Z,100053.96
2023-09-13T00:38:50.568Z,100057.18
2023-09-13T00:43:54.068Z,100061.00
2023-09-13T00:48:58.572Z,100062.34
2023-09-13T00:54:05.736Z,100056.56
2023-09-13T00:59:10.777Z,100049.61
2023-09-13T01:04:14.536Z,100049.10
2023-09-13T01:09:19.257Z,100052.99
2023-09-13T01:14:23.134Z,100055.66
2023-09-13T01:19:51.613Z,100054.08
2023-09-13T01:25:10.622Z,100062.35
2023-09-13T01:30:14.255Z,100056.98
2023-09-13T01:35:17.651Z,100056.35
2023-09-13T01:40:30.893Z,100056.45
2023-09-13T01:45:36.958Z,100055.05
2023-09-13T01:50:48.968Z,100055.31
2023-09-13T01:56:00.059Z,100060.73
2023-09-13T02:01:08.145Z,100063.55
2023-09-13T02:06:12.047Z,100059.11
2023-09-13T02:11:15.427Z,100052.83
2023-09-13T02:16:22.582Z,100050.63
2023-09-13T02:21:26.049Z,100051.14
2023-09-13T02:26:29.223Z,100050.02
2023-09-13T02:31:32.658Z,100051.95
2023-09-13T02:36:35.989Z,100051.59
2023-09-13T02:41:39.153Z,100050.98
2023-09-13T02:46:42.228Z,100053.11
2023-09-13T02:51:46.434Z,100049.04
2023-09-13T02:56:51.027Z,100051.58
2023-09-13T03:01:55.224Z,100054.64
2023-09-13T03:06:59.053Z,100054.79
2023-09-13T03:12:03.260Z,100047.97
2023-09-13T03:17:07.867Z,100047.02
2023-09-13T03:22:11.411Z,100044.96
2023-09-13T03:27:15.159Z,100044.34
2023-09-13T03:32:18.630Z,100045.72
2023-09-13T03:37:21.932Z,100048.80
2023-09-13T03:42:25.434Z,100039.61
2023-09-13T03:47:28.851Z,100041.68
2023-09-13T03:52:32.330Z,100038.11
2023-09-13T03:57:35.676Z,100039.35
2023-09-13T04:02:39.071Z,100044.75
2023-09-13T04:07:42.447Z,100041.96
2023-09-13T04:12:45.797Z,100043.45
2023-09-13T04:17:49.142Z,100040.68
2023-09-13T04:22:52.671Z,100043.88
2023-09-13T04:27:55.981Z,100044.70
2023-09-13T04:33:04.095Z,100040.55
2023-09-13T04:38:08.275Z,100036.16
2023-09-13T04:43:11.624Z,100037.54
2023-09-13T04:48:15.632Z,100032.13
2023-09-13T04:53:19.341Z,100042.72
2023-09-13T04:58:23.113Z,100042.18
2023-09-13T05:03:26.736Z,100037.50
2023-09-13T05:08:33.270Z,100033.16
2023-09-13T05:13:40.085Z,100036.00
2023-09-13T05:18:43.330Z,100044.01
2023-09-13T05:23:46.882Z,100047.78
2023-09-13T05:28:50.303Z,100046.61
2023-09-13T05:33:53.675Z,100046.08
2023-09-13T05:38:57.058Z,100048.35
2023-09-13T05:44:00.314Z,100043.95
2023-09-13T05:49:03.927Z,100041.41
2023-09-13T05:54:07.508Z,100044.80
2023-09-13T05:59:10.704Z,100042.80
2023-09-13T06:04:13.935Z,100042.64
2023-09-13T06:09:23.153Z,100048.48
2023-09-13T06:14:26.416Z,100043.23
2023-09-13T06:19:29.655Z,100037.77
2023-09-13T06:24:32.832Z,100044.46
2023-09-13T06:29:35.943Z,100048.58
2023-09-13T06:34:39.488Z,100052.34
2023-09-13T06:39:43.155Z,100053.84
2023-09-13T06:44:48.566Z,100054.13
2023-09-13T06:49:52.512Z,100056.00
2023-09-13T06:54:57.952Z,100057.11
2023-09-13T07:00:04.854Z,100061.27
2023-09-13T07:10:14.583Z,100052.65
2023-09-13T07:15:18.215Z,100054.05
2023-09-13T07:20:21.808Z,100056.66
2023-09-13T07:25:25.106Z,100050.45
2023-09-13T07:30:29.033Z,100052.03
2023-09-13T07:35:32.646Z,100051.38
2023-09-13T07:40:35.803Z,100054.41
2023-09-13T07:45:38.915Z,100060.02
2023-09-13T07:50:42.304Z,100061.00
2023-09-13T07:55:45.658Z,100063.69
2023-09-13T08:00:48.903Z,100071.49
2023-09-13T08:05:52.364Z,100071.91
2023-09-13T08:10:55.671Z,100068.34
2023-09-13T08:15:59.698Z,100072.52
2023-09-13T08:21:02.965Z,100073.48
2023-09-13T08:26:21.361Z,100071.64
2023-09-13T08:31:29.458Z,100071.69
2023-09-13T08:36:34.788Z,100070.92
2023-09-13T08:41:38.293Z,100067.17
2023-09-13T08:46:42.088Z,100066.13
2023-09-13T08:51:47.395Z,100062.16
2023-09-13T08:56:50.672Z,100051.64
2023-09-13T09:01:55.197Z,100048.55
2023-09-13T09:06:58.989Z,100047.70
2023-09-13T09:12:05.271Z,100040.98
2023-09-13T09:17:08.839Z,100043.84
2023-09-13T09:22:13.265Z,100045.58
2023-09-13T09:27:16.473Z,100043.22
2023-09-13T09:32:19.785Z,100038.04
2023-09-13T09:37:30.078Z,100029.44
2023-09-13T09:42:39.668Z,100025.92
2023-09-13T09:47:43.139Z,100021.63
2023-09-13T09:52:51.356Z,100021.16
2023-09-13T09:57:56.753Z,100020.13
2023-09-13T10:03:00.706Z,100014.54
2023-09-13T10:08:04.533Z,100015.33
2023-09-13T10:13:07.705Z,100014.30
2023-09-13T10:18:13.932Z,100005.06
2023-09-13T10:23:19.178Z,100004.52
2023-09-13T10:28:27.927Z,99992.89
2023-09-13T10:33:35.906Z,99986.92
2023-09-13T10:38:56.720Z,99990.69
2023-09-13T10:44:00.271Z,99989.31
2023-09-13T10:49:04.317Z,99987.44
2023-09-13T10:54:08.351Z,99984.39
2023-09-13T10:59:16.089Z,99980.91
2023-09-13T11:04:21.434Z,99976.28
2023-09-13T11:09:31.328Z,99974.98
2023-09-13T11:14:35.075Z,99970.46
2023-09-13T11:19:38.527Z,99973.14
2023-09-13T11:25:00.614Z,99973.27
2023-09-13T11:30:06.815Z,99971.09
2023-09-13T11:35:11.546Z,99964.36
2023-09-13T11:40:16.078Z,99967.73
2023-09-13T11:45:33.206Z,99967.15
2023-09-13T11:50:48.273Z,99970.48
2023-09-13T11:56:12.085Z,99968.14
2023-09-13T12:01:17.869Z,99974.86
2023-09-13T12:06:32.343Z,99973.17
2023-09-13T12:11:37.410Z,99975.11
2023-09-13T12:16:43.897Z,99969.80
2023-09-13T12:21:48.401Z,99972.20
2023-09-13T12:26:55.217Z,99969.25
2023-09-13T12:32:01.110Z,99969.94
2023-09-13T12:37:04.962Z,99964.30
2023-09-13T12:42:11.949Z,99966.25
2023-09-13T12:47:21.169Z,99960.81
2023-09-13T12:52:26.574Z,99958.34
2023-09-13T12:57:32.724Z,99957.02
2023-09-13T13:02:36.830Z,99953.06
2023-09-13T13:07:52.882Z,99945.85
2023-09-13T13:13:02.827Z,99941.11
2023-09-13T13:18:10.640Z,99931.73
2023-09-13T13:23:14.663Z,99923.77
2023-09-13T13:28:17.946Z,99911.08
2023-09-13T13:33:21.058Z,99902.45
2023-09-13T13:38:24.206Z,99893.75
2023-09-13T13:43:27.376Z,99889.80
2023-09-13T13:48:31.721Z,99891.73
2023-09-13T13:53:35.171Z,99897.29
2023-09-13T13:58:38.416Z,99897.69
2023-09-13T14:03:41.989Z,99894.46
2023-09-13T14:08:45.405Z,99887.66
2023-09-13T14:13:48.686Z,99880.60
2023-09-13T14:18:51.963Z,99877.22
2023-09-13T14:23:56.210Z,99874.40
2023-09-13T14:29:00.684Z,99867.42
2023-09-13T14:34:06.440Z,99861.45
2023-09-13T14:39:09.692Z,99849.42
2023-09-13T14:44:12.742Z,99848.61
2023-09-13T14:49:20.785Z,99845.59
2023-09-13T14:54:24.352Z,99841.77
2023-09-13T14:59:27.942Z,99837.34
2023-09-13T15:04:32.303Z,99829.11
2023-09-13T15:09:35.520Z,99830.02
2023-09-13T15:14:38.751Z,99824.17
2023-09-13T15:19:42.037Z,99824.70
2023-09-13T15:24:45.309Z,99828.86
2023-09-13T15:29:48.637Z,99832.46
2023-09-13T15:34:51.810Z,99829.13
2023-09-13T15:39:58.290Z,99830.85
2023-09-13T15:45:01.541Z,99826.69
2023-09-13T15:50:05.187Z,99828.18
2023-09-13T15:55:10.233Z,99823.42
2023-09-13T16:00:14.093Z,99820.20
2023-09-13T16:05:17.451Z,99816.11
2023-09-13T16:10:23.993Z,99818.73
2023-09-13T16:15:27.461Z,99819.77
2023-09-13T16:20:31.042Z,99820.41
2023-09-13T16:25:34.194Z,99826.34
2023-09-13T16:30:37.672Z,99832.39
2023-09-13T16:35:41.938Z,99837.34
2023-09-13T16:40:45.153Z,99845.65
2023-09-13T16:45:48.349Z,99841.94
2023-09-13T16:50:51.679Z,99833.26
2023-09-13T16:55:55.198Z,99830.60
2023-09-13T17:00:58.876Z,99824.03
2023-09-13T17:06:02.316Z,99809.36
2023-09-13T17:11:09.712Z,99807.02
2023-09-13T17:16:13.188Z,99810.41
2023-09-13T17:21:16.746Z,99823.75
2023-09-13T17:26:20.381Z,99832.87
2023-09-13T17:31:24.258Z,99839.41
2023-09-13T17:36:39.965Z,99844.06
2023-09-13T17:41:45.380Z,99850.06
2023-09-13T17:46:48.794Z,99851.23
2023-09-13T17:51:52.049Z,99842.81
2023-09-13T17:56:55.309Z,99842.02
2023-09-13T18:01:58.535Z,99845.43
2023-09-13T18:07:02.614Z,99843.01
2023-09-13T18:12:07.097Z,99880.40
2023-09-13T18:17:10.385Z,99890.64
2023-09-13T18:22:13.624Z,99899.59
2023-09-13T18:27:16.842Z,99917.10
2023-09-13T18:32:19.994Z,99939.33
2023-09-13T18:37:23.130Z,99952.26
2023-09-13T18:42:26.403Z,99965.48
2023-09-13T18:47:30.000Z,99975.30
2023-09-13T18:52:33.136Z,99997.42
2023-09-13T18:57:36.573Z,100043.02
2023-09-13T19:02:40.666Z,100072.06
2023-09-13T19:07:43.935Z,100088.85
2023-09-13T19:12:49.074Z,100085.92
2023-09-13T19:17:53.547Z,100090.55
2023-09-13T19:22:56.754Z,100091.55
2023-09-13T19:28:00.216Z,100095.48
2023-09-13T19:33:04.458Z,100083.38
2023-09-13T19:38:13.108Z,100081.44
2023-09-13T19:43:24.370Z,100087.50
2023-09-13T19:48:28.855Z,100092.70
2023-09-13T19:53:32.684Z,100095.41
2023-09-13T19:58:40.830Z,100097.37
2023-09-13T20:03:44.708Z,100083.04
2023-09-13T20:08:48.381Z,100071.99
2023-09-13T20:13:51.761Z,100064.13
2023-09-13T20:18:55.191Z,100046.87
2023-09-13T20:23:58.327Z,100032.31
2023-09-13T20:29:03.184Z,100027.52
2023-09-13T20:34:08.678Z,100045.94
2023-09-13T20:39:13.628Z,100054.11
2023-09-13T20:44:16.902Z,100042.44
2023-09-13T20:49:20.345Z,100025.52
2023-09-13T20:54:25.922Z,100032.34
2023-09-13T20:59:29.298Z,100031.55
2023-09-13T21:04:36.012Z,100032.55
2023-09-13T21:09:39.297Z,100020.05
2023-09-13T21:14:42.558Z,100019.55
2023-09-13T21:19:45.879Z,100025.34
2023-09-13T21:24:50.465Z,100026.08
2023-09-13T21:29:53.967Z,100019.44
2023-09-13T21:35:02.298Z,100016.81
2023-09-13T21:40:07.672Z,100015.96
2023-09-13T21:45:11.146Z,100018.50
2023-09-13T21:50:15.112Z,100028.09
2023-09-13T21:55:18.821Z,100030.90
2023-09-13T22:00:22.436Z,100035.95
2023-09-13T22:05:25.832Z,100033.45
2023-09-13T22:10:29.047Z,100030.41
2023-09-13T22:15:32.325Z,100031.18
2023-09-13T22:20:36.537Z,100029.84
2023-09-13T22:25:39.666Z,100029.85
2023-09-13T22:30:43.172Z,100033.88
2023-09-13T22:35:48.392Z,100046.94
2023-09-13T22:40:52.164Z,100048.54
2023-09-13T22:45:56.056Z,100048.20
2023-09-13T22:50:59.371Z,100049.71
2023-09-13T22:56:03.454Z,100046.71
2023-09-13T23:01:11.468Z,100048.18
2023-09-13T23:06:15.272Z,100060.23
2023-09-13T23:11:18.678Z,100065.42
2023-09-13T23:16:21.992Z,100066.70
2023-09-13T23:21:32.006Z,100067.18
2023-09-13T23:26:35.161Z,100076.66
2023-09-13T23:31:38.509Z,100078.23
2023-09-13T23:36:41.820Z,100073.23
2023-09-13T23:41:44.916Z,100074.04
2023-09-13T23:46:48.378Z,100076.88
2023-09-13T23:51:51.745Z,100078.86
2023-09-13T23:56:54.919Z,100078.64
